Airport View

Enter AWOS ICAO identifier for current METAR.

ex. KFNL

KWJF 251356Z 24006KT 10SM CLR 18/01 A2997 RMK AO2 SLP134 T01780011

25 Sep 2020 14:11

Phone: 661-949-2840

Other Area AWOS: KPMD - KEDW - KMHV - K9L2

TAF KWJF 251132Z 2512/2612 27010KT P6SM SKC FM252200 25020G30KT P6SM SKC FM260400 25015KT P6SM SKC